sensor_id;sensor_type;location;lat;lon;timestamp;P1;durP1;ratioP1;P2;durP2;ratioP2
20928;SDS011;21895;47.072;15.132;2022-07-05T00:00:08;8.95;;;4.12;;
20928;SDS011;21895;47.072;15.132;2022-07-05T00:02:36;5.30;;;4.25;;
20928;SDS011;21895;47.072;15.132;2022-07-05T00:05:03;7.00;;;4.30;;
20928;SDS011;21895;47.072;15.132;2022-07-05T00:07:30;8.27;;;4.68;;
20928;SDS011;21895;47.072;15.132;2022-07-05T00:09:56;8.23;;;4.40;;
20928;SDS011;21895;47.072;15.132;2022-07-05T00:12:25;5.07;;;3.80;;
20928;SDS011;21895;47.072;15.132;2022-07-05T00:14:58;5.87;;;4.25;;
20928;SDS011;21895;47.072;15.132;2022-07-05T00:17:26;8.32;;;4.37;;
20928;SDS011;21895;47.072;15.132;2022-07-05T00:19:53;5.68;;;4.22;;
20928;SDS011;21895;47.072;15.132;2022-07-05T00:22:19;7.60;;;4.18;;
20928;SDS011;21895;47.072;15.132;2022-07-05T00:24:46;6.10;;;4.20;;
20928;SDS011;21895;47.072;15.132;2022-07-05T00:27:12;5.75;;;3.90;;
20928;SDS011;21895;47.072;15.132;2022-07-05T00:29:39;6.65;;;4.20;;
20928;SDS011;21895;47.072;15.132;2022-07-05T00:32:06;7.10;;;4.12;;
20928;SDS011;21895;47.072;15.132;2022-07-05T00:34:33;4.93;;;4.18;;
20928;SDS011;21895;47.072;15.132;2022-07-05T00:36:59;8.13;;;4.35;;
20928;SDS011;21895;47.072;15.132;2022-07-05T00:39:26;8.18;;;4.72;;
20928;SDS011;21895;47.072;15.132;2022-07-05T00:41:52;7.62;;;4.32;;
20928;SDS011;21895;47.072;15.132;2022-07-05T00:44:28;10.30;;;4.50;;
20928;SDS011;21895;47.072;15.132;2022-07-05T00:47:01;4.68;;;4.18;;
20928;SDS011;21895;47.072;15.132;2022-07-05T00:49:29;9.55;;;4.50;;
20928;SDS011;21895;47.072;15.132;2022-07-05T00:51:58;8.52;;;4.50;;
20928;SDS011;21895;47.072;15.132;2022-07-05T00:54:45;6.53;;;4.65;;
20928;SDS011;21895;47.072;15.132;2022-07-05T00:57:13;7.47;;;4.30;;
20928;SDS011;21895;47.072;15.132;2022-07-05T00:59:40;9.63;;;4.62;;
20928;SDS011;21895;47.072;15.132;2022-07-05T01:02:07;12.80;;;5.03;;
20928;SDS011;21895;47.072;15.132;2022-07-05T01:04:33;8.02;;;4.03;;
20928;SDS011;21895;47.072;15.132;2022-07-05T01:07:00;5.70;;;4.30;;
20928;SDS011;21895;47.072;15.132;2022-07-05T01:09:29;9.75;;;4.35;;
20928;SDS011;21895;47.072;15.132;2022-07-05T01:11:55;10.45;;;4.62;;
20928;SDS011;21895;47.072;15.132;2022-07-05T01:14:23;8.25;;;4.47;;
20928;SDS011;21895;47.072;15.132;2022-07-05T01:16:49;6.82;;;4.10;;
20928;SDS011;21895;47.072;15.132;2022-07-05T01:19:18;8.65;;;4.40;;
20928;SDS011;21895;47.072;15.132;2022-07-05T01:21:47;14.60;;;4.72;;
20928;SDS011;21895;47.072;15.132;2022-07-05T01:24:16;8.07;;;4.70;;
20928;SDS011;21895;47.072;15.132;2022-07-05T01:26:45;9.43;;;5.07;;
20928;SDS011;21895;47.072;15.132;2022-07-05T01:29:14;5.57;;;4.25;;
20928;SDS011;21895;47.072;15.132;2022-07-05T01:31:41;9.18;;;5.03;;
20928;SDS011;21895;47.072;15.132;2022-07-05T01:34:08;9.30;;;4.72;;
20928;SDS011;21895;47.072;15.132;2022-07-05T01:36:35;7.43;;;4.55;;
20928;SDS011;21895;47.072;15.132;2022-07-05T01:39:03;8.25;;;4.72;;
20928;SDS011;21895;47.072;15.132;2022-07-05T01:41:32;6.00;;;4.28;;
20928;SDS011;21895;47.072;15.132;2022-07-05T01:43:59;9.15;;;4.72;;
20928;SDS011;21895;47.072;15.132;2022-07-05T01:46:28;16.83;;;4.60;;
20928;SDS011;21895;47.072;15.132;2022-07-05T01:49:04;12.50;;;4.90;;
20928;SDS011;21895;47.072;15.132;2022-07-05T01:51:41;7.65;;;4.53;;
20928;SDS011;21895;47.072;15.132;2022-07-05T01:54:19;12.37;;;4.93;;
20928;SDS011;21895;47.072;15.132;2022-07-05T01:56:46;11.02;;;4.62;;
20928;SDS011;21895;47.072;15.132;2022-07-05T01:59:13;9.98;;;4.68;;
20928;SDS011;21895;47.072;15.132;2022-07-05T02:01:40;7.53;;;4.53;;
20928;SDS011;21895;47.072;15.132;2022-07-05T02:04:07;5.78;;;4.40;;
20928;SDS011;21895;47.072;15.132;2022-07-05T02:06:36;5.68;;;4.53;;
20928;SDS011;21895;47.072;15.132;2022-07-05T02:09:03;7.20;;;4.60;;
20928;SDS011;21895;47.072;15.132;2022-07-05T02:11:32;9.40;;;4.35;;
20928;SDS011;21895;47.072;15.132;2022-07-05T02:13:59;5.12;;;4.47;;
20928;SDS011;21895;47.072;15.132;2022-07-05T02:16:26;6.65;;;4.57;;
20928;SDS011;21895;47.072;15.132;2022-07-05T02:18:54;8.73;;;4.40;;
20928;SDS011;21895;47.072;15.132;2022-07-05T02:21:20;9.60;;;4.70;;
20928;SDS011;21895;47.072;15.132;2022-07-05T02:23:47;9.32;;;4.35;;
20928;SDS011;21895;47.072;15.132;2022-07-05T02:26:14;11.55;;;4.30;;
20928;SDS011;21895;47.072;15.132;2022-07-05T02:28:41;5.32;;;4.47;;
20928;SDS011;21895;47.072;15.132;2022-07-05T02:31:08;7.18;;;4.28;;
20928;SDS011;21895;47.072;15.132;2022-07-05T02:33:34;5.80;;;4.07;;
20928;SDS011;21895;47.072;15.132;2022-07-05T02:36:08;9.20;;;4.20;;
20928;SDS011;21895;47.072;15.132;2022-07-05T02:38:36;9.10;;;3.97;;
20928;SDS011;21895;47.072;15.132;2022-07-05T02:41:04;6.57;;;4.15;;
20928;SDS011;21895;47.072;15.132;2022-07-05T02:43:35;14.68;;;4.43;;
20928;SDS011;21895;47.072;15.132;2022-07-05T02:46:04;7.00;;;4.32;;
20928;SDS011;21895;47.072;15.132;2022-07-05T02:48:32;8.60;;;4.90;;
20928;SDS011;21895;47.072;15.132;2022-07-05T02:51:00;8.18;;;4.68;;
20928;SDS011;21895;47.072;15.132;2022-07-05T02:53:28;9.55;;;4.68;;
20928;SDS011;21895;47.072;15.132;2022-07-05T02:55:55;6.97;;;4.55;;
20928;SDS011;21895;47.072;15.132;2022-07-05T02:58:21;5.57;;;3.97;;
20928;SDS011;21895;47.072;15.132;2022-07-05T03:00:48;7.55;;;3.95;;
20928;SDS011;21895;47.072;15.132;2022-07-05T03:03:15;6.78;;;3.85;;
20928;SDS011;21895;47.072;15.132;2022-07-05T03:05:42;8.48;;;4.30;;
20928;SDS011;21895;47.072;15.132;2022-07-05T03:08:09;6.35;;;4.20;;
20928;SDS011;21895;47.072;15.132;2022-07-05T03:10:35;8.25;;;4.18;;
20928;SDS011;21895;47.072;15.132;2022-07-05T03:13:02;6.40;;;3.95;;
20928;SDS011;21895;47.072;15.132;2022-07-05T03:15:29;4.68;;;3.87;;
20928;SDS011;21895;47.072;15.132;2022-07-05T03:17:55;5.85;;;4.15;;
20928;SDS011;21895;47.072;15.132;2022-07-05T03:20:22;9.35;;;3.97;;
20928;SDS011;21895;47.072;15.132;2022-07-05T03:22:48;8.32;;;4.00;;
20928;SDS011;21895;47.072;15.132;2022-07-05T03:25:15;10.90;;;4.57;;
20928;SDS011;21895;47.072;15.132;2022-07-05T03:27:41;6.55;;;3.87;;
20928;SDS011;21895;47.072;15.132;2022-07-05T03:30:08;5.90;;;3.90;;
20928;SDS011;21895;47.072;15.132;2022-07-05T03:32:36;5.78;;;4.00;;
20928;SDS011;21895;47.072;15.132;2022-07-05T03:35:02;13.77;;;4.78;;
20928;SDS011;21895;47.072;15.132;2022-07-05T03:37:30;9.75;;;4.53;;
20928;SDS011;21895;47.072;15.132;2022-07-05T03:39:56;6.60;;;3.83;;
20928;SDS011;21895;47.072;15.132;2022-07-05T03:42:23;9.30;;;3.95;;
20928;SDS011;21895;47.072;15.132;2022-07-05T03:44:49;6.18;;;4.20;;
20928;SDS011;21895;47.072;15.132;2022-07-05T03:47:16;7.93;;;4.53;;
20928;SDS011;21895;47.072;15.132;2022-07-05T03:49:42;7.80;;;3.83;;
20928;SDS011;21895;47.072;15.132;2022-07-05T03:52:09;7.03;;;3.67;;
20928;SDS011;21895;47.072;15.132;2022-07-05T03:54:36;11.95;;;3.83;;
20928;SDS011;21895;47.072;15.132;2022-07-05T03:57:03;4.18;;;3.78;;
20928;SDS011;21895;47.072;15.132;2022-07-05T03:59:30;5.43;;;3.90;;
20928;SDS011;21895;47.072;15.132;2022-07-05T04:01:56;5.62;;;4.07;;
20928;SDS011;21895;47.072;15.132;2022-07-05T04:04:23;7.10;;;4.07;;
20928;SDS011;21895;47.072;15.132;2022-07-05T04:06:49;6.03;;;4.05;;
20928;SDS011;21895;47.072;15.132;2022-07-05T04:09:16;7.00;;;3.67;;
20928;SDS011;21895;47.072;15.132;2022-07-05T04:11:42;5.65;;;4.40;;
20928;SDS011;21895;47.072;15.132;2022-07-05T04:14:09;6.45;;;4.25;;
20928;SDS011;21895;47.072;15.132;2022-07-05T04:16:36;7.85;;;4.03;;
20928;SDS011;21895;47.072;15.132;2022-07-05T04:19:03;12.02;;;4.15;;
20928;SDS011;21895;47.072;15.132;2022-07-05T04:21:29;5.43;;;3.90;;
20928;SDS011;21895;47.072;15.132;2022-07-05T04:23:56;17.33;;;4.70;;
20928;SDS011;21895;47.072;15.132;2022-07-05T04:26:23;6.50;;;4.40;;
20928;SDS011;21895;47.072;15.132;2022-07-05T04:28:49;6.12;;;4.70;;
20928;SDS011;21895;47.072;15.132;2022-07-05T04:31:22;5.53;;;4.45;;
20928;SDS011;21895;47.072;15.132;2022-07-05T04:33:48;6.75;;;3.87;;
20928;SDS011;21895;47.072;15.132;2022-07-05T04:36:16;5.78;;;4.28;;
20928;SDS011;21895;47.072;15.132;2022-07-05T04:38:42;11.15;;;4.12;;
20928;SDS011;21895;47.072;15.132;2022-07-05T04:41:09;5.60;;;4.03;;
20928;SDS011;21895;47.072;15.132;2022-07-05T04:43:35;9.00;;;4.57;;
20928;SDS011;21895;47.072;15.132;2022-07-05T04:46:02;5.87;;;4.20;;
20928;SDS011;21895;47.072;15.132;2022-07-05T04:48:29;5.03;;;4.00;;
20928;SDS011;21895;47.072;15.132;2022-07-05T04:50:55;8.20;;;4.32;;
20928;SDS011;21895;47.072;15.132;2022-07-05T04:53:22;7.97;;;4.32;;
20928;SDS011;21895;47.072;15.132;2022-07-05T04:55:48;7.15;;;4.68;;
20928;SDS011;21895;47.072;15.132;2022-07-05T04:58:15;5.72;;;4.53;;
20928;SDS011;21895;47.072;15.132;2022-07-05T05:00:42;7.72;;;4.20;;
20928;SDS011;21895;47.072;15.132;2022-07-05T05:03:08;10.15;;;4.53;;
20928;SDS011;21895;47.072;15.132;2022-07-05T05:05:35;8.23;;;4.55;;
20928;SDS011;21895;47.072;15.132;2022-07-05T05:08:01;9.85;;;4.50;;
20928;SDS011;21895;47.072;15.132;2022-07-05T05:10:28;13.32;;;4.20;;
20928;SDS011;21895;47.072;15.132;2022-07-05T05:12:55;8.00;;;4.35;;
20928;SDS011;21895;47.072;15.132;2022-07-05T05:15:21;8.70;;;3.83;;
20928;SDS011;21895;47.072;15.132;2022-07-05T05:17:48;7.60;;;4.32;;
20928;SDS011;21895;47.072;15.132;2022-07-05T05:20:15;11.00;;;4.60;;
20928;SDS011;21895;47.072;15.132;2022-07-05T05:22:44;8.50;;;4.20;;
20928;SDS011;21895;47.072;15.132;2022-07-05T05:25:12;6.12;;;3.72;;
20928;SDS011;21895;47.072;15.132;2022-07-05T05:27:43;8.00;;;4.07;;
20928;SDS011;21895;47.072;15.132;2022-07-05T05:30:16;5.87;;;3.85;;
20928;SDS011;21895;47.072;15.132;2022-07-05T05:32:44;8.85;;;3.85;;
20928;SDS011;21895;47.072;15.132;2022-07-05T05:35:11;7.62;;;3.83;;
20928;SDS011;21895;47.072;15.132;2022-07-05T05:37:45;5.80;;;3.80;;
20928;SDS011;21895;47.072;15.132;2022-07-05T05:40:21;12.25;;;4.10;;
20928;SDS011;21895;47.072;15.132;2022-07-05T05:42:51;13.20;;;3.87;;
20928;SDS011;21895;47.072;15.132;2022-07-05T05:45:19;6.55;;;3.70;;
20928;SDS011;21895;47.072;15.132;2022-07-05T05:47:50;14.50;;;3.83;;
20928;SDS011;21895;47.072;15.132;2022-07-05T05:50:23;12.07;;;4.57;;
20928;SDS011;21895;47.072;15.132;2022-07-05T05:52:58;7.15;;;3.47;;
20928;SDS011;21895;47.072;15.132;2022-07-05T05:55:26;8.35;;;3.70;;
20928;SDS011;21895;47.072;15.132;2022-07-05T05:57:54;10.63;;;3.85;;
20928;SDS011;21895;47.072;15.132;2022-07-05T06:00:23;8.38;;;4.50;;
20928;SDS011;21895;47.072;15.132;2022-07-05T06:02:51;11.12;;;4.18;;
20928;SDS011;21895;47.072;15.132;2022-07-05T06:05:18;11.70;;;4.18;;
20928;SDS011;21895;47.072;15.132;2022-07-05T06:07:46;11.38;;;5.03;;
20928;SDS011;21895;47.072;15.132;2022-07-05T06:10:22;10.52;;;3.92;;
20928;SDS011;21895;47.072;15.132;2022-07-05T06:12:57;10.57;;;3.75;;
20928;SDS011;21895;47.072;15.132;2022-07-05T06:15:29;6.90;;;3.35;;
20928;SDS011;21895;47.072;15.132;2022-07-05T06:17:56;7.32;;;2.78;;
20928;SDS011;21895;47.072;15.132;2022-07-05T06:20:24;9.32;;;3.65;;
20928;SDS011;21895;47.072;15.132;2022-07-05T06:22:54;8.80;;;3.40;;
20928;SDS011;21895;47.072;15.132;2022-07-05T06:25:22;11.93;;;3.53;;
20928;SDS011;21895;47.072;15.132;2022-07-05T06:27:54;8.82;;;3.25;;
20928;SDS011;21895;47.072;15.132;2022-07-05T06:30:30;7.45;;;3.50;;
20928;SDS011;21895;47.072;15.132;2022-07-05T06:32:59;7.55;;;3.80;;
20928;SDS011;21895;47.072;15.132;2022-07-05T06:35:26;5.10;;;3.20;;
20928;SDS011;21895;47.072;15.132;2022-07-05T06:37:55;5.25;;;3.47;;
20928;SDS011;21895;47.072;15.132;2022-07-05T06:40:30;9.93;;;3.50;;
20928;SDS011;21895;47.072;15.132;2022-07-05T06:42:59;7.12;;;3.30;;
20928;SDS011;21895;47.072;15.132;2022-07-05T06:45:29;10.23;;;3.85;;
20928;SDS011;21895;47.072;15.132;2022-07-05T06:47:59;10.30;;;3.55;;
20928;SDS011;21895;47.072;15.132;2022-07-05T06:50:31;9.60;;;4.10;;
20928;SDS011;21895;47.072;15.132;2022-07-05T06:53:05;7.97;;;4.00;;
20928;SDS011;21895;47.072;15.132;2022-07-05T06:55:32;6.35;;;3.90;;
20928;SDS011;21895;47.072;15.132;2022-07-05T06:58:00;7.12;;;3.75;;
20928;SDS011;21895;47.072;15.132;2022-07-05T07:00:41;7.93;;;3.78;;
20928;SDS011;21895;47.072;15.132;2022-07-05T07:03:39;9.10;;;3.35;;
20928;SDS011;21895;47.072;15.132;2022-07-05T07:06:35;11.27;;;3.70;;
20928;SDS011;21895;47.072;15.132;2022-07-05T07:09:02;6.07;;;3.37;;
20928;SDS011;21895;47.072;15.132;2022-07-05T07:11:44;6.90;;;3.37;;
20928;SDS011;21895;47.072;15.132;2022-07-05T07:14:11;6.93;;;3.10;;
20928;SDS011;21895;47.072;15.132;2022-07-05T07:16:38;13.30;;;3.67;;
20928;SDS011;21895;47.072;15.132;2022-07-05T07:19:04;5.55;;;3.58;;
20928;SDS011;21895;47.072;15.132;2022-07-05T07:21:37;5.97;;;3.20;;
20928;SDS011;21895;47.072;15.132;2022-07-05T07:24:06;6.57;;;3.17;;
20928;SDS011;21895;47.072;15.132;2022-07-05T07:26:33;6.72;;;3.33;;
20928;SDS011;21895;47.072;15.132;2022-07-05T07:29:28;7.93;;;3.05;;
20928;SDS011;21895;47.072;15.132;2022-07-05T07:31:58;7.65;;;3.75;;
20928;SDS011;21895;47.072;15.132;2022-07-05T07:34:26;7.78;;;3.10;;
20928;SDS011;21895;47.072;15.132;2022-07-05T07:36:54;4.43;;;3.47;;
20928;SDS011;21895;47.072;15.132;2022-07-05T07:39:22;9.50;;;3.20;;
20928;SDS011;21895;47.072;15.132;2022-07-05T07:41:49;5.68;;;3.40;;
20928;SDS011;21895;47.072;15.132;2022-07-05T07:44:16;9.85;;;3.42;;
20928;SDS011;21895;47.072;15.132;2022-07-05T07:46:43;3.67;;;3.37;;
20928;SDS011;21895;47.072;15.132;2022-07-05T07:49:10;5.22;;;3.35;;
20928;SDS011;21895;47.072;15.132;2022-07-05T07:51:37;9.88;;;3.37;;
20928;SDS011;21895;47.072;15.132;2022-07-05T07:54:05;5.05;;;3.37;;
20928;SDS011;21895;47.072;15.132;2022-07-05T07:56:40;8.38;;;3.00;;
20928;SDS011;21895;47.072;15.132;2022-07-05T07:59:07;5.82;;;2.87;;
20928;SDS011;21895;47.072;15.132;2022-07-05T08:01:33;5.93;;;2.97;;
20928;SDS011;21895;47.072;15.132;2022-07-05T08:04:09;5.62;;;2.92;;
20928;SDS011;21895;47.072;15.132;2022-07-05T08:06:35;4.43;;;2.72;;
20928;SDS011;21895;47.072;15.132;2022-07-05T08:09:02;4.15;;;2.85;;
20928;SDS011;21895;47.072;15.132;2022-07-05T08:11:28;5.43;;;2.78;;
20928;SDS011;21895;47.072;15.132;2022-07-05T08:13:55;5.20;;;2.75;;
20928;SDS011;21895;47.072;15.132;2022-07-05T08:16:22;3.15;;;2.33;;
20928;SDS011;21895;47.072;15.132;2022-07-05T08:18:48;3.35;;;2.50;;
20928;SDS011;21895;47.072;15.132;2022-07-05T08:21:33;5.18;;;2.55;;
20928;SDS011;21895;47.072;15.132;2022-07-05T08:24:07;4.40;;;2.42;;
20928;SDS011;21895;47.072;15.132;2022-07-05T08:26:36;6.18;;;2.53;;
20928;SDS011;21895;47.072;15.132;2022-07-05T08:29:05;5.80;;;2.28;;
20928;SDS011;21895;47.072;15.132;2022-07-05T08:31:37;5.40;;;2.20;;
20928;SDS011;21895;47.072;15.132;2022-07-05T08:34:07;4.75;;;2.70;;
20928;SDS011;21895;47.072;15.132;2022-07-05T08:36:33;3.33;;;2.30;;
20928;SDS011;21895;47.072;15.132;2022-07-05T08:39:00;3.25;;;2.05;;
20928;SDS011;21895;47.072;15.132;2022-07-05T08:41:28;2.53;;;2.08;;
20928;SDS011;21895;47.072;15.132;2022-07-05T08:43:58;3.55;;;1.95;;
20928;SDS011;21895;47.072;15.132;2022-07-05T08:46:29;3.37;;;2.10;;
20928;SDS011;21895;47.072;15.132;2022-07-05T08:49:01;2.80;;;1.95;;
20928;SDS011;21895;47.072;15.132;2022-07-05T08:51:37;9.25;;;1.90;;
20928;SDS011;21895;47.072;15.132;2022-07-05T08:54:11;6.90;;;2.20;;
20928;SDS011;21895;47.072;15.132;2022-07-05T08:56:42;2.47;;;1.90;;
20928;SDS011;21895;47.072;15.132;2022-07-05T08:59:37;1.80;;;1.70;;
20928;SDS011;21895;47.072;15.132;2022-07-05T09:02:03;2.10;;;1.90;;
20928;SDS011;21895;47.072;15.132;2022-07-05T09:04:35;3.78;;;1.50;;
20928;SDS011;21895;47.072;15.132;2022-07-05T09:07:12;3.87;;;2.17;;
20928;SDS011;21895;47.072;15.132;2022-07-05T09:09:42;1.90;;;1.80;;
20928;SDS011;21895;47.072;15.132;2022-07-05T09:12:13;5.28;;;1.87;;
20928;SDS011;21895;47.072;15.132;2022-07-05T09:14:54;4.47;;;2.03;;
20928;SDS011;21895;47.072;15.132;2022-07-05T09:17:22;6.87;;;1.83;;
20928;SDS011;21895;47.072;15.132;2022-07-05T09:20:10;4.72;;;1.73;;
20928;SDS011;21895;47.072;15.132;2022-07-05T09:22:52;1.20;;;1.10;;
20928;SDS011;21895;47.072;15.132;2022-07-05T09:25:30;1.00;;;0.90;;
20928;SDS011;21895;47.072;15.132;2022-07-05T09:28:04;0.77;;;0.77;;
20928;SDS011;21895;47.072;15.132;2022-07-05T09:30:36;0.80;;;0.80;;
20928;SDS011;21895;47.072;15.132;2022-07-05T09:33:07;2.35;;;1.10;;
20928;SDS011;21895;47.072;15.132;2022-07-05T09:35:41;1.23;;;0.82;;
20928;SDS011;21895;47.072;15.132;2022-07-05T09:38:23;2.40;;;0.90;;
20928;SDS011;21895;47.072;15.132;2022-07-05T09:40:52;1.30;;;1.00;;
20928;SDS011;21895;47.072;15.132;2022-07-05T09:43:24;0.95;;;0.93;;
20928;SDS011;21895;47.072;15.132;2022-07-05T09:45:56;1.17;;;0.80;;
20928;SDS011;21895;47.072;15.132;2022-07-05T09:48:28;1.55;;;1.10;;
20928;SDS011;21895;47.072;15.132;2022-07-05T09:51:08;2.53;;;1.10;;
20928;SDS011;21895;47.072;15.132;2022-07-05T09:54:18;0.95;;;0.77;;
20928;SDS011;21895;47.072;15.132;2022-07-05T09:56:45;2.35;;;0.80;;
20928;SDS011;21895;47.072;15.132;2022-07-05T09:59:17;0.70;;;0.70;;
20928;SDS011;21895;47.072;15.132;2022-07-05T10:01:46;0.88;;;0.88;;
20928;SDS011;21895;47.072;15.132;2022-07-05T10:04:14;0.80;;;0.80;;
20928;SDS011;21895;47.072;15.132;2022-07-05T10:06:42;0.90;;;0.90;;
20928;SDS011;21895;47.072;15.132;2022-07-05T10:09:09;1.20;;;1.10;;
20928;SDS011;21895;47.072;15.132;2022-07-05T10:11:37;1.48;;;1.08;;
20928;SDS011;21895;47.072;15.132;2022-07-05T10:14:17;0.85;;;0.85;;
20928;SDS011;21895;47.072;15.132;2022-07-05T10:16:47;1.77;;;0.82;;
20928;SDS011;21895;47.072;15.132;2022-07-05T10:19:32;2.60;;;0.98;;
20928;SDS011;21895;47.072;15.132;2022-07-05T10:22:05;1.20;;;1.05;;
20928;SDS011;21895;47.072;15.132;2022-07-05T10:24:48;1.10;;;1.00;;
20928;SDS011;21895;47.072;15.132;2022-07-05T10:27:16;1.10;;;1.10;;
20928;SDS011;21895;47.072;15.132;2022-07-05T10:29:44;1.45;;;1.10;;
20928;SDS011;21895;47.072;15.132;2022-07-05T10:32:11;1.05;;;1.05;;
20928;SDS011;21895;47.072;15.132;2022-07-05T10:34:41;6.20;;;1.30;;
20928;SDS011;21895;47.072;15.132;2022-07-05T10:37:31;1.50;;;1.40;;
20928;SDS011;21895;47.072;15.132;2022-07-05T10:40:00;2.12;;;1.50;;
20928;SDS011;21895;47.072;15.132;2022-07-05T10:42:32;1.40;;;1.30;;
20928;SDS011;21895;47.072;15.132;2022-07-05T10:45:30;1.30;;;1.25;;
20928;SDS011;21895;47.072;15.132;2022-07-05T10:48:26;1.30;;;1.20;;
20928;SDS011;21895;47.072;15.132;2022-07-05T10:50:55;1.02;;;1.02;;
20928;SDS011;21895;47.072;15.132;2022-07-05T10:55:29;1.12;;;1.10;;
20928;SDS011;21895;47.072;15.132;2022-07-05T10:58:21;1.77;;;1.20;;
20928;SDS011;21895;47.072;15.132;2022-07-05T11:04:11;0.60;;;0.60;;
20928;SDS011;21895;47.072;15.132;2022-07-05T11:06:48;0.70;;;0.70;;
20928;SDS011;21895;47.072;15.132;2022-07-05T11:09:16;0.70;;;0.70;;
20928;SDS011;21895;47.072;15.132;2022-07-05T11:12:06;0.40;;;0.40;;
20928;SDS011;21895;47.072;15.132;2022-07-05T11:14:53;0.40;;;0.40;;
20928;SDS011;21895;47.072;15.132;2022-07-05T11:17:36;0.40;;;0.40;;
20928;SDS011;21895;47.072;15.132;2022-07-05T11:20:29;0.30;;;0.30;;
20928;SDS011;21895;47.072;15.132;2022-07-05T11:23:01;0.52;;;0.30;;
20928;SDS011;21895;47.072;15.132;2022-07-05T11:25:35;3.03;;;0.37;;
20928;SDS011;21895;47.072;15.132;2022-07-05T11:30:51;0.30;;;0.30;;
20928;SDS011;21895;47.072;15.132;2022-07-05T11:33:28;3.85;;;0.52;;
20928;SDS011;21895;47.072;15.132;2022-07-05T11:36:00;0.43;;;0.43;;
20928;SDS011;21895;47.072;15.132;2022-07-05T11:38:29;0.40;;;0.40;;
20928;SDS011;21895;47.072;15.132;2022-07-05T11:41:37;0.55;;;0.47;;
20928;SDS011;21895;47.072;15.132;2022-07-05T11:44:06;2.58;;;0.60;;
20928;SDS011;21895;47.072;15.132;2022-07-05T11:46:35;1.20;;;0.60;;
20928;SDS011;21895;47.072;15.132;2022-07-05T11:49:18;0.40;;;0.40;;
20928;SDS011;21895;47.072;15.132;2022-07-05T11:52:02;0.45;;;0.45;;
20928;SDS011;21895;47.072;15.132;2022-07-05T11:54:30;0.50;;;0.50;;
20928;SDS011;21895;47.072;15.132;2022-07-05T11:57:00;0.50;;;0.50;;
20928;SDS011;21895;47.072;15.132;2022-07-05T11:59:27;0.47;;;0.47;;
20928;SDS011;21895;47.072;15.132;2022-07-05T12:01:54;0.65;;;0.52;;
20928;SDS011;21895;47.072;15.132;2022-07-05T12:04:24;0.82;;;0.60;;
20928;SDS011;21895;47.072;15.132;2022-07-05T12:06:56;0.52;;;0.52;;
20928;SDS011;21895;47.072;15.132;2022-07-05T12:09:24;1.37;;;0.60;;
20928;SDS011;21895;47.072;15.132;2022-07-05T12:11:53;1.08;;;0.98;;
20928;SDS011;21895;47.072;15.132;2022-07-05T12:14:46;1.27;;;0.65;;
20928;SDS011;21895;47.072;15.132;2022-07-05T12:17:19;0.50;;;0.50;;
20928;SDS011;21895;47.072;15.132;2022-07-05T12:19:52;1.23;;;0.80;;
20928;SDS011;21895;47.072;15.132;2022-07-05T12:22:32;0.65;;;0.57;;
20928;SDS011;21895;47.072;15.132;2022-07-05T12:25:19;2.83;;;0.80;;
20928;SDS011;21895;47.072;15.132;2022-07-05T12:27:49;0.80;;;0.70;;
20928;SDS011;21895;47.072;15.132;2022-07-05T12:30:18;0.70;;;0.70;;
20928;SDS011;21895;47.072;15.132;2022-07-05T12:36:13;0.73;;;0.73;;
20928;SDS011;21895;47.072;15.132;2022-07-05T12:38:42;2.58;;;0.85;;
20928;SDS011;21895;47.072;15.132;2022-07-05T12:41:09;0.80;;;0.80;;
20928;SDS011;21895;47.072;15.132;2022-07-05T12:43:48;0.75;;;0.75;;
20928;SDS011;21895;47.072;15.132;2022-07-05T12:46:17;1.27;;;0.90;;
20928;SDS011;21895;47.072;15.132;2022-07-05T12:48:50;1.77;;;1.02;;
20928;SDS011;21895;47.072;15.132;2022-07-05T12:51:34;0.80;;;0.80;;
20928;SDS011;21895;47.072;15.132;2022-07-05T12:54:07;0.90;;;0.90;;
20928;SDS011;21895;47.072;15.132;2022-07-05T12:57:05;0.80;;;0.80;;
20928;SDS011;21895;47.072;15.132;2022-07-05T13:00:01;3.80;;;0.90;;
20928;SDS011;21895;47.072;15.132;2022-07-05T13:02:37;0.93;;;0.93;;
20928;SDS011;21895;47.072;15.132;2022-07-05T13:05:07;2.25;;;1.00;;
20928;SDS011;21895;47.072;15.132;2022-07-05T13:07:48;1.05;;;0.98;;
20928;SDS011;21895;47.072;15.132;2022-07-05T13:10:20;1.67;;;1.00;;
20928;SDS011;21895;47.072;15.132;2022-07-05T13:12:50;1.20;;;1.10;;
20928;SDS011;21895;47.072;15.132;2022-07-05T13:15:17;3.42;;;1.30;;
20928;SDS011;21895;47.072;15.132;2022-07-05T13:17:44;1.45;;;1.10;;
20928;SDS011;21895;47.072;15.132;2022-07-05T13:20:15;1.05;;;1.05;;
20928;SDS011;21895;47.072;15.132;2022-07-05T13:22:46;0.90;;;0.90;;
20928;SDS011;21895;47.072;15.132;2022-07-05T13:25:13;1.37;;;1.27;;
20928;SDS011;21895;47.072;15.132;2022-07-05T13:27:40;1.55;;;1.17;;
20928;SDS011;21895;47.072;15.132;2022-07-05T13:30:07;2.65;;;1.00;;
20928;SDS011;21895;47.072;15.132;2022-07-05T13:32:35;1.30;;;1.20;;
20928;SDS011;21895;47.072;15.132;2022-07-05T13:35:01;3.12;;;1.25;;
20928;SDS011;21895;47.072;15.132;2022-07-05T13:37:29;3.42;;;1.40;;
20928;SDS011;21895;47.072;15.132;2022-07-05T13:39:55;1.67;;;1.58;;
20928;SDS011;21895;47.072;15.132;2022-07-05T13:42:22;1.55;;;1.25;;
20928;SDS011;21895;47.072;15.132;2022-07-05T13:44:49;2.17;;;1.20;;
20928;SDS011;21895;47.072;15.132;2022-07-05T13:47:16;2.20;;;1.52;;
20928;SDS011;21895;47.072;15.132;2022-07-05T13:49:42;5.60;;;1.37;;
20928;SDS011;21895;47.072;15.132;2022-07-05T13:52:09;7.30;;;1.60;;
20928;SDS011;21895;47.072;15.132;2022-07-05T13:54:35;3.33;;;1.50;;
20928;SDS011;21895;47.072;15.132;2022-07-05T13:57:03;1.52;;;1.42;;
20928;SDS011;21895;47.072;15.132;2022-07-05T13:59:30;2.35;;;1.40;;
20928;SDS011;21895;47.072;15.132;2022-07-05T14:01:56;1.20;;;1.20;;
20928;SDS011;21895;47.072;15.132;2022-07-05T14:04:23;2.35;;;1.62;;
20928;SDS011;21895;47.072;15.132;2022-07-05T14:06:53;2.60;;;1.60;;
20928;SDS011;21895;47.072;15.132;2022-07-05T14:09:19;1.42;;;1.33;;
20928;SDS011;21895;47.072;15.132;2022-07-05T14:11:53;2.95;;;1.65;;
20928;SDS011;21895;47.072;15.132;2022-07-05T14:14:19;1.70;;;1.60;;
20928;SDS011;21895;47.072;15.132;2022-07-05T14:16:46;1.60;;;1.50;;
20928;SDS011;21895;47.072;15.132;2022-07-05T14:19:13;4.10;;;1.80;;
20928;SDS011;21895;47.072;15.132;2022-07-05T14:21:39;2.95;;;1.60;;
20928;SDS011;21895;47.072;15.132;2022-07-05T14:24:10;5.55;;;1.70;;
20928;SDS011;21895;47.072;15.132;2022-07-05T14:26:37;3.00;;;1.52;;
20928;SDS011;21895;47.072;15.132;2022-07-05T14:29:05;2.78;;;1.90;;
20928;SDS011;21895;47.072;15.132;2022-07-05T14:31:32;3.35;;;1.73;;
20928;SDS011;21895;47.072;15.132;2022-07-05T14:33:59;3.95;;;1.90;;
20928;SDS011;21895;47.072;15.132;2022-07-05T14:36:25;1.87;;;1.77;;
20928;SDS011;21895;47.072;15.132;2022-07-05T14:38:52;2.03;;;1.83;;
20928;SDS011;21895;47.072;15.132;2022-07-05T14:41:19;3.78;;;1.70;;
20928;SDS011;21895;47.072;15.132;2022-07-05T14:43:45;1.98;;;1.60;;
20928;SDS011;21895;47.072;15.132;2022-07-05T14:46:12;1.60;;;1.50;;
20928;SDS011;21895;47.072;15.132;2022-07-05T14:48:43;2.17;;;1.70;;
20928;SDS011;21895;47.072;15.132;2022-07-05T14:51:10;3.20;;;1.52;;
20928;SDS011;21895;47.072;15.132;2022-07-05T14:53:37;3.20;;;1.80;;
20928;SDS011;21895;47.072;15.132;2022-07-05T14:56:03;4.00;;;1.90;;
20928;SDS011;21895;47.072;15.132;2022-07-05T14:58:30;2.00;;;1.75;;
20928;SDS011;21895;47.072;15.132;2022-07-05T15:00:58;1.80;;;1.70;;
20928;SDS011;21895;47.072;15.132;2022-07-05T15:03:25;5.05;;;2.03;;